createdAt,value
2023-04-22T00:01:11.390Z,3.00
2023-04-22T00:06:13.490Z,2.00
2023-04-22T00:11:15.544Z,8.25
2023-04-22T00:16:18.862Z,5.75
2023-04-22T00:21:20.867Z,2.00
2023-04-22T00:26:22.636Z,4.00
2023-04-22T00:31:24.672Z,2.50
2023-04-22T00:36:27.874Z,6.25
2023-04-22T00:41:31.263Z,8.75
2023-04-22T00:46:34.224Z,6.00
2023-04-22T00:51:36.839Z,9.50
2023-04-22T00:56:39.682Z,9.00
2023-04-22T01:01:42.702Z,14.00
2023-04-22T01:06:45.437Z,10.25
2023-04-22T01:11:48.072Z,12.25
2023-04-22T01:16:51.275Z,9.00
2023-04-22T01:21:54.500Z,7.50
2023-04-22T01:26:56.757Z,7.50
2023-04-22T01:31:58.929Z,12.25
2023-04-22T01:37:00.953Z,15.75
2023-04-22T01:42:03.883Z,11.00
2023-04-22T01:47:06.015Z,11.25
2023-04-22T01:52:09.846Z,6.25
2023-04-22T01:57:14.301Z,4.25
2023-04-22T02:02:16.565Z,3.75
2023-04-22T02:07:18.465Z,2.50
2023-04-22T02:12:20.350Z,2.00
2023-04-22T02:17:22.396Z,3.00
2023-04-22T02:22:24.731Z,3.00
2023-04-22T02:27:26.559Z,3.00
2023-04-22T02:32:28.586Z,4.00
2023-04-22T02:37:30.961Z,3.00
2023-04-22T02:42:33.114Z,3.75
2023-04-22T02:47:36.863Z,3.00
2023-04-22T02:52:39.624Z,3.50
2023-04-22T02:57:41.511Z,1.50
2023-04-22T03:02:43.542Z,2.50
2023-04-22T03:07:49.343Z,3.25
2023-04-22T03:12:52.070Z,3.00
2023-04-22T03:17:55.439Z,8.75
2023-04-22T03:22:58.958Z,3.00
2023-04-22T03:28:03.011Z,3.50
2023-04-22T03:33:05.735Z,4.00
2023-04-22T03:38:15.640Z,9.00
2023-04-22T03:43:17.848Z,4.00
2023-04-22T03:48:30.113Z,5.75
2023-04-22T03:53:32.383Z,2.25
2023-04-22T03:58:34.537Z,3.00
2023-04-22T04:03:41.123Z,4.25
2023-04-22T04:08:44.470Z,3.75
2023-04-22T04:13:46.524Z,4.00
2023-04-22T04:18:55.949Z,4.00
2023-04-22T04:24:00.537Z,4.00
2023-04-22T04:29:06.375Z,3.00
2023-04-22T04:34:08.561Z,2.00
2023-04-22T04:39:12.734Z,3.00
2023-04-22T04:44:16.051Z,3.50
2023-04-22T04:49:18.007Z,2.50
2023-04-22T04:54:28.854Z,4.75
2023-04-22T04:59:31.678Z,2.75
2023-04-22T05:04:34.611Z,3.00
2023-04-22T05:09:38.051Z,2.00
2023-04-22T05:14:41.503Z,4.00
2023-04-22T05:19:43.582Z,8.00
2023-04-22T05:24:46.546Z,10.00
2023-04-22T05:29:49.278Z,4.25
2023-04-22T05:34:55.634Z,4.00
2023-04-22T05:39:57.576Z,3.00
2023-04-22T05:45:00.296Z,3.00
2023-04-22T05:50:03.842Z,3.00
2023-04-22T05:55:28.942Z,3.00
2023-04-22T06:00:31.354Z,3.00
2023-04-22T06:05:49.004Z,2.00
2023-04-22T06:10:50.955Z,3.00
2023-04-22T06:15:52.914Z,3.00
2023-04-22T06:20:54.948Z,3.00
2023-04-22T06:25:58.625Z,3.00
2023-04-22T06:31:02.085Z,2.33
2023-04-22T06:36:05.811Z,4.25
2023-04-22T06:41:09.019Z,4.00
2023-04-22T06:46:14.216Z,3.67
2023-04-22T06:51:45.765Z,4.00
2023-04-22T06:56:48.050Z,4.00
2023-04-22T07:01:50.321Z,4.00
2023-04-22T07:06:52.399Z,5.00
2023-04-22T07:11:54.428Z,4.00
2023-04-22T07:16:56.758Z,3.00
2023-04-22T07:21:58.551Z,2.33
2023-04-22T07:27:02.400Z,3.00
2023-04-22T07:32:04.535Z,3.00
2023-04-22T07:37:07.353Z,4.00
2023-04-22T07:42:09.199Z,2.00
2023-04-22T07:47:11.135Z,5.33
2023-04-22T07:52:12.973Z,6.33
2023-04-22T07:57:15.098Z,9.00
2023-04-22T08:02:17.096Z,3.00
2023-04-22T08:07:32.620Z,3.67
2023-04-22T08:12:35.430Z,4.00
2023-04-22T08:17:37.568Z,4.67
2023-04-22T08:22:39.575Z,4.00
2023-04-22T08:27:41.542Z,3.00
2023-04-22T08:32:43.482Z,3.33
2023-04-22T08:37:45.421Z,7.00
2023-04-22T08:42:48.208Z,9.75
2023-04-22T08:47:50.333Z,11.75
2023-04-22T08:52:52.513Z,7.00
2023-04-22T08:57:54.988Z,5.25
2023-04-22T09:03:01.415Z,4.33
2023-04-22T09:08:03.750Z,2.00
2023-04-22T09:13:06.773Z,3.00
2023-04-22T09:18:10.179Z,10.50
2023-04-22T09:23:13.394Z,11.50
2023-04-22T09:28:19.530Z,15.00
2023-04-22T09:33:21.407Z,10.25
2023-04-22T09:38:23.327Z,10.25
2023-04-22T09:43:25.493Z,5.00
2023-04-22T09:48:27.501Z,4.00
2023-04-22T09:53:29.971Z,3.00
2023-04-22T09:58:31.945Z,3.33
2023-04-22T10:03:33.825Z,3.00
2023-04-22T10:08:36.281Z,7.00
2023-04-22T10:13:38.162Z,3.67
2023-04-22T10:18:41.022Z,2.00
2023-04-22T10:23:48.231Z,4.00
2023-04-22T10:28:51.106Z,3.67
2023-04-22T10:34:11.114Z,5.00
2023-04-22T10:39:17.346Z,27.00
2023-04-22T10:44:21.777Z,20.50
2023-04-22T10:49:26.112Z,18.00
2023-04-22T10:54:31.113Z,17.00
2023-04-22T10:59:41.898Z,12.25
2023-04-22T11:04:43.858Z,13.50
2023-04-22T11:09:50.367Z,14.00
2023-04-22T11:14:53.285Z,10.00
2023-04-22T11:19:56.495Z,13.00
2023-04-22T11:25:00.063Z,15.50
2023-04-22T11:30:09.165Z,4.00
2023-04-22T11:35:14.560Z,3.00
2023-04-22T11:40:30.792Z,3.00
2023-04-22T11:45:36.937Z,4.00
2023-04-22T11:50:40.707Z,3.00
2023-04-22T11:55:44.491Z,3.67
2023-04-22T12:00:48.326Z,2.33
2023-04-22T12:06:00.059Z,4.00
2023-04-22T12:11:07.266Z,5.00
2023-04-22T12:16:20.028Z,4.00
2023-04-22T12:21:24.933Z,5.00
2023-04-22T12:26:27.833Z,4.67
2023-04-22T12:31:29.995Z,2.00
2023-04-22T12:36:32.550Z,2.67
2023-04-22T12:41:34.421Z,2.00
2023-04-22T12:46:36.391Z,3.00
2023-04-22T12:51:38.248Z,4.00
2023-04-22T12:56:40.282Z,5.00
2023-04-22T13:01:42.141Z,7.67
2023-04-22T13:06:44.421Z,6.67
2023-04-22T13:11:49.248Z,4.00
2023-04-22T13:16:52.053Z,5.00
2023-04-22T13:21:53.844Z,5.00
2023-04-22T13:26:56.259Z,3.67
2023-04-22T13:31:58.366Z,4.00
2023-04-22T13:37:00.336Z,3.67
2023-04-22T13:42:03.234Z,5.00
2023-04-22T13:47:05.318Z,4.00
2023-04-22T13:52:07.128Z,2.67
2023-04-22T13:57:08.968Z,7.00
2023-04-22T14:02:10.889Z,9.67
2023-04-22T14:07:13.221Z,11.00
2023-04-22T14:12:15.226Z,9.00
2023-04-22T14:17:17.591Z,8.00
2023-04-22T14:22:19.402Z,11.00
2023-04-22T14:27:21.299Z,14.33
2023-04-22T14:32:25.137Z,14.00
2023-04-22T14:37:27.191Z,16.00
2023-04-22T14:42:29.073Z,15.67
2023-04-22T14:47:31.439Z,15.00
2023-04-22T14:52:33.381Z,10.00
2023-04-22T14:57:35.350Z,9.00
2023-04-22T15:02:38.064Z,7.00
2023-04-22T15:07:40.219Z,7.00
2023-04-22T15:12:42.471Z,6.67
2023-04-22T15:17:44.795Z,9.33
2023-04-22T15:22:46.846Z,15.67
2023-04-22T15:27:48.756Z,10.67
2023-04-22T15:32:50.908Z,8.33
2023-04-22T15:37:52.980Z,10.00
2023-04-22T15:42:54.818Z,14.67
2023-04-22T15:47:56.815Z,15.00
2023-04-22T15:52:58.646Z,15.33
2023-04-22T15:58:00.669Z,12.00
2023-04-22T16:03:02.756Z,14.33
2023-04-22T16:08:04.749Z,14.33
2023-04-22T16:13:06.643Z,15.00
2023-04-22T16:18:08.546Z,9.33
2023-04-22T16:23:10.430Z,11.00
2023-04-22T16:28:12.346Z,10.00
2023-04-22T16:33:15.644Z,11.00
2023-04-22T16:38:17.515Z,16.33
2023-04-22T16:43:19.493Z,11.33
2023-04-22T16:48:21.389Z,13.33
2023-04-22T16:53:23.245Z,14.00
2023-04-22T16:58:25.144Z,19.50
2023-04-22T17:03:27.296Z,18.00
2023-04-22T17:08:29.331Z,14.00
2023-04-22T17:13:31.167Z,4.00
2023-04-22T17:18:32.956Z,16.33
2023-04-22T17:23:36.298Z,13.33
2023-04-22T17:28:38.125Z,13.67
2023-04-22T17:33:41.208Z,10.00
2023-04-22T17:38:43.044Z,8.00
2023-04-22T17:43:45.185Z,10.00
2023-04-22T17:48:47.232Z,7.33
2023-04-22T17:53:49.052Z,7.67
2023-04-22T17:58:50.914Z,7.00
2023-04-22T18:03:52.834Z,7.00
2023-04-22T18:08:54.740Z,8.00
2023-04-22T18:13:56.559Z,9.00
2023-04-22T18:18:59.851Z,24.25
2023-04-22T18:24:02.720Z,7.00
2023-04-22T18:29:05.635Z,30.00
2023-04-22T18:34:08.210Z,11.33
2023-04-22T18:39:10.797Z,16.00
2023-04-22T18:44:13.012Z,18.00
2023-04-22T18:49:14.928Z,16.50
2023-04-22T18:54:16.883Z,13.00
2023-04-22T18:59:19.051Z,12.00
2023-04-22T19:04:21.117Z,10.67
2023-04-22T19:09:23.985Z,8.67
2023-04-22T19:14:25.924Z,12.67
2023-04-22T19:19:27.783Z,11.00
2023-04-22T19:24:33.526Z,9.00
2023-04-22T19:29:35.510Z,10.00
2023-04-22T19:34:38.750Z,8.00
2023-04-22T19:39:40.876Z,7.67
2023-04-22T19:44:46.612Z,7.67
2023-04-22T19:49:48.630Z,7.67
2023-04-22T19:54:55.686Z,6.33
2023-04-22T19:59:57.751Z,6.33
2023-04-22T20:05:00.988Z,7.00
2023-04-22T20:10:04.190Z,7.00
2023-04-22T20:15:06.752Z,6.33
2023-04-22T20:20:14.653Z,7.00
2023-04-22T20:25:19.344Z,5.00
2023-04-22T20:30:21.380Z,6.00
2023-04-22T20:35:24.463Z,4.00
2023-04-22T20:40:27.327Z,6.00
2023-04-22T20:45:29.122Z,6.33
2023-04-22T20:50:33.471Z,6.00
2023-04-22T20:55:37.213Z,6.00
2023-04-22T21:00:39.274Z,6.67
2023-04-22T21:05:44.503Z,6.00
2023-04-22T21:10:47.955Z,6.33
2023-04-22T21:16:02.470Z,5.00
2023-04-22T21:21:06.837Z,4.00
2023-04-22T21:26:10.523Z,4.00
2023-04-22T21:31:12.795Z,4.67
2023-04-22T21:36:14.878Z,4.00
2023-04-22T21:41:16.956Z,4.00
2023-04-22T21:46:19.975Z,4.00
2023-04-22T21:51:21.786Z,5.00
2023-04-22T21:56:23.637Z,4.00
2023-04-22T22:01:26.222Z,4.67
2023-04-22T22:06:28.553Z,4.67
2023-04-22T22:11:31.478Z,5.00
2023-04-22T22:16:33.651Z,4.00
2023-04-22T22:21:36.102Z,5.00
2023-04-22T22:26:41.043Z,6.00
2023-04-22T22:31:43.788Z,7.00
2023-04-22T22:36:45.941Z,5.00
2023-04-22T22:41:47.703Z,6.67
2023-04-22T22:46:49.479Z,5.00
2023-04-22T22:51:51.279Z,6.00
2023-04-22T22:56:53.096Z,5.00
2023-04-22T23:01:54.967Z,6.33
2023-04-22T23:06:57.409Z,6.00
2023-04-22T23:11:59.250Z,7.33
2023-04-22T23:17:01.316Z,6.00
2023-04-22T23:22:05.881Z,6.50
2023-04-22T23:27:07.884Z,8.00
2023-04-22T23:32:12.273Z,7.00
2023-04-22T23:37:15.223Z,7.25
2023-04-22T23:42:17.033Z,9.25
2023-04-22T23:47:18.997Z,8.00
2023-04-22T23:52:20.814Z,7.25
2023-04-22T23:57:22.925Z,6.50
